Time;durP1;ratioP1;P1;durP2;ratioP2;P2;SDS_P1;SDS_P2;PMS_P1;PMS_P2;Temp;Humidity;BMP_temperature;BMP_pressure;BME280_temperature;BME280_humidity;BME280_pressure;Samples;Min_cycle;Max_cycle;Signal;HPM_P1;HPM_P2
2021/05/07 00:00:39;;;;;;;;;;;6.60;97.80;;;;;;5117580;28;20019;-69
2021/05/07 00:03:05;;;;;;;;;;;6.50;97.90;;;;;;5099917;28;19916;-68
2021/05/07 00:05:30;;;;;;;;;;;6.50;97.70;;;;;;5098400;28;19923;-69
2021/05/07 00:07:58;;;;;;;;;;;6.50;97.80;;;;;;5082804;28;19966;-69
2021/05/07 00:10:25;;;;;;;;;;;6.50;97.90;;;;;;5091328;28;19923;-69
2021/05/07 00:12:51;;;;;;;;;;;6.60;97.70;;;;;;5103558;28;19912;-68
2021/05/07 00:15:16;;;;;;;;;;;6.60;97.80;;;;;;5114540;28;20006;-69
2021/05/07 00:17:43;;;;;;;;;;;6.50;97.50;;;;;;5117466;28;19922;-69
2021/05/07 00:20:09;;;;;;;;;;;6.50;97.80;;;;;;5099916;28;19915;-69
2021/05/07 00:22:34;;;;;;;;;;;6.50;97.70;;;;;;5113990;28;19936;-68
2021/05/07 00:25:00;;;;;;;;;;;6.50;97.80;;;;;;5113729;28;19912;-67
2021/05/07 00:27:25;;;;;;;;;;;6.50;97.60;;;;;;5109694;28;19918;-68
2021/05/07 00:29:51;;;;;;;;;;;6.50;98.00;;;;;;5118066;28;20002;-68
2021/05/07 00:32:16;;;;;;;;;;;6.60;97.80;;;;;;5116004;28;20232;-68
2021/05/07 00:34:42;;;;;;;;;;;6.60;97.90;;;;;;5098272;28;20224;-68
2021/05/07 00:37:07;;;;;;;;;;;6.60;97.80;;;;;;5115078;28;20359;-69
2021/05/07 00:39:33;;;;;;;;;;;6.60;97.60;;;;;;5117313;28;20316;-69
2021/05/07 00:42:03;;;;;;;;;;;6.60;97.70;;;;;;5104986;28;19990;-69
2021/05/07 00:44:32;;;;;;;;;;;6.60;97.60;;;;;;5098514;28;20039;-69
2021/05/07 00:47:04;;;;;;;;;;;6.60;97.50;;;;;;5105894;28;20007;-68
2021/05/07 00:49:30;;;;;;;;;;;6.60;97.50;;;;;;5107013;28;20209;-69
2021/05/07 00:51:56;;;;;;;;;;;6.50;97.40;;;;;;5099221;28;19919;-69
2021/05/07 00:54:21;;;;;;;;;;;6.60;97.50;;;;;;5104852;28;19911;-70
2021/05/07 00:56:47;;;;;;;;;;;6.50;97.50;;;;;;5117379;28;19916;-70
2021/05/07 00:59:13;;;;;;;;;;;6.50;97.80;;;;;;5111996;28;20181;-69
2021/05/07 01:01:38;;;;;;;;;;;6.50;97.60;;;;;;5114409;28;19984;-69
2021/05/07 01:04:05;;;;;;;;;;;6.50;97.60;;;;;;5098769;28;20308;-69
2021/05/07 01:06:30;;;;;;;;;;;6.40;97.40;;;;;;5108441;28;19916;-69
2021/05/07 01:08:56;;;;;;;;;;;6.40;97.30;;;;;;5116238;28;20332;-70
2021/05/07 01:11:22;;;;;;;;;;;6.40;97.10;;;;;;5112827;28;19916;-70
2021/05/07 01:13:47;;;;;;;;;;;6.40;97.10;;;;;;5109082;28;19922;-70
2021/05/07 01:16:13;;;;;;;;;;;6.30;97.00;;;;;;5105692;28;19947;-69
2021/05/07 01:18:38;;;;;;;;;;;6.30;96.90;;;;;;5104849;28;20097;-69
2021/05/07 01:21:04;;;;;;;;;;;6.20;96.80;;;;;;5081842;28;19935;-68
2021/05/07 01:23:29;;;;;;;;;;;6.20;97.00;;;;;;5113864;28;19938;-68
2021/05/07 01:25:55;;;;;;;;;;;6.20;96.90;;;;;;5116570;28;20567;-68
2021/05/07 01:28:21;;;;;;;;;;;6.10;97.00;;;;;;5104418;28;20377;-67
2021/05/07 01:30:50;;;;;;;;;;;6.10;96.90;;;;;;5110450;28;19912;-69
2021/05/07 01:33:18;;;;;;;;;;;6.00;97.20;;;;;;5104111;28;19912;-68
2021/05/07 01:35:44;;;;;;;;;;;6.00;97.00;;;;;;5114191;28;19962;-68
2021/05/07 01:38:11;;;;;;;;;;;6.00;96.80;;;;;;5098036;28;19918;-68
2021/05/07 01:40:38;;;;;;;;;;;6.00;96.90;;;;;;5102056;27;20018;-67
2021/05/07 01:43:04;;;;;;;;;;;6.00;97.00;;;;;;5103791;28;19912;-68
2021/05/07 01:45:34;;;;;;;;;;;6.00;96.90;;;;;;5097697;28;19912;-69
2021/05/07 01:48:00;;;;;;;;;;;6.00;96.90;;;;;;5115741;28;19916;-69
2021/05/07 01:50:27;;;;;;;;;;;6.00;96.70;;;;;;5097489;28;19916;-69
2021/05/07 01:52:54;;;;;;;;;;;6.00;96.80;;;;;;5095850;28;19916;-68
2021/05/07 01:55:27;;;;;;;;;;;5.90;96.80;;;;;;5096418;28;19996;-68
2021/05/07 01:57:53;;;;;;;;;;;5.90;96.90;;;;;;5079363;28;20029;-68
2021/05/07 02:00:20;;;;;;;;;;;5.80;96.90;;;;;;5111728;28;19924;-68
2021/05/07 02:02:46;;;;;;;;;;;5.80;96.80;;;;;;5097683;28;19920;-69
2021/05/07 02:05:13;;;;;;;;;;;5.80;97.10;;;;;;5101313;28;19915;-69
2021/05/07 02:07:39;;;;;;;;;;;5.80;97.00;;;;;;5113838;28;19923;-70
2021/05/07 02:10:06;;;;;;;;;;;5.80;97.40;;;;;;5101226;28;19912;-70
2021/05/07 02:12:31;;;;;;;;;;;5.70;97.50;;;;;;5113566;28;19918;-71
2021/05/07 02:14:57;;;;;;;;;;;5.70;97.30;;;;;;5111197;28;20695;-71
2021/05/07 02:17:23;;;;;;;;;;;5.70;97.40;;;;;;5095973;28;19919;-69
2021/05/07 02:19:48;;;;;;;;;;;5.70;97.60;;;;;;5115157;28;19965;-71
2021/05/07 02:22:14;;;;;;;;;;;5.70;97.70;;;;;;5113231;28;20301;-70
2021/05/07 02:24:39;;;;;;;;;;;5.70;97.60;;;;;;5112855;28;20049;-69
2021/05/07 02:27:05;;;;;;;;;;;5.60;97.70;;;;;;5088754;28;19991;-70
2021/05/07 02:29:30;;;;;;;;;;;5.70;97.80;;;;;;5111473;28;19912;-70
2021/05/07 02:31:56;;;;;;;;;;;5.70;97.70;;;;;;5115175;28;20257;-70
2021/05/07 02:34:21;;;;;;;;;;;5.70;97.90;;;;;;5113283;28;19998;-70
2021/05/07 02:36:47;;;;;;;;;;;5.70;97.70;;;;;;5095286;28;19973;-68
2021/05/07 02:39:15;;;;;;;;;;;5.70;97.60;;;;;;5107808;28;19951;-70
2021/05/07 02:41:41;;;;;;;;;;;5.70;97.70;;;;;;5110147;28;20220;-70
2021/05/07 02:44:07;;;;;;;;;;;5.70;97.70;;;;;;5106537;28;19912;-69
2021/05/07 02:46:33;;;;;;;;;;;5.70;97.60;;;;;;5104169;28;20262;-70
2021/05/07 02:48:59;;;;;;;;;;;5.70;97.60;;;;;;5118370;28;20007;-71
2021/05/07 02:51:24;;;;;;;;;;;5.70;97.70;;;;;;5113902;28;19999;-70
2021/05/07 02:53:50;;;;;;;;;;;5.70;97.40;;;;;;5101040;28;19912;-70
2021/05/07 02:56:15;;;;;;;;;;;5.70;97.60;;;;;;5099615;28;19908;-70
2021/05/07 02:58:41;;;;;;;;;;;5.70;97.40;;;;;;5099707;28;20362;-70
2021/05/07 03:01:06;;;;;;;;;;;5.70;97.50;;;;;;5114057;28;19920;-71
2021/05/07 03:03:32;;;;;;;;;;;5.70;97.50;;;;;;5084362;28;19991;-70
2021/05/07 03:05:57;;;;;;;;;;;5.70;97.50;;;;;;5119700;28;19963;-70
2021/05/07 03:08:23;;;;;;;;;;;5.70;97.60;;;;;;5117998;28;19923;-71
2021/05/07 03:10:49;;;;;;;;;;;5.70;97.50;;;;;;5118927;28;20216;-70
2021/05/07 03:13:14;;;;;;;;;;;5.70;97.50;;;;;;5112667;28;19919;-70
2021/05/07 03:15:40;;;;;;;;;;;5.70;97.30;;;;;;5119243;28;20406;-70
2021/05/07 03:18:05;;;;;;;;;;;5.70;97.50;;;;;;5119108;28;20380;-69
2021/05/07 03:20:31;;;;;;;;;;;5.80;97.50;;;;;;5118742;28;20314;-71
2021/05/07 03:22:56;;;;;;;;;;;5.80;97.50;;;;;;5111121;28;19912;-71
2021/05/07 03:25:22;;;;;;;;;;;5.80;97.50;;;;;;5113023;28;19919;-70
2021/05/07 03:27:47;;;;;;;;;;;5.70;97.30;;;;;;5099240;28;20012;-70
2021/05/07 03:30:13;;;;;;;;;;;5.80;97.30;;;;;;5099657;28;20209;-70
2021/05/07 03:32:39;;;;;;;;;;;5.80;97.30;;;;;;5110958;27;19962;-70
2021/05/07 03:35:05;;;;;;;;;;;5.80;97.30;;;;;;5099137;28;19915;-71
2021/05/07 03:37:30;;;;;;;;;;;5.80;97.40;;;;;;5112979;28;19965;-71
2021/05/07 03:39:56;;;;;;;;;;;5.80;97.20;;;;;;5118451;28;19916;-70
2021/05/07 03:42:24;;;;;;;;;;;5.80;97.30;;;;;;5115969;28;19928;-69
2021/05/07 03:44:50;;;;;;;;;;;5.80;97.20;;;;;;5101560;28;19912;-70
2021/05/07 03:47:15;;;;;;;;;;;5.80;97.30;;;;;;5117609;28;19908;-70
2021/05/07 03:49:41;;;;;;;;;;;5.80;97.20;;;;;;5108532;28;19942;-71
2021/05/07 03:52:07;;;;;;;;;;;5.70;97.00;;;;;;5092765;28;19912;-70
2021/05/07 03:54:32;;;;;;;;;;;5.80;97.20;;;;;;5112021;28;20205;-70
2021/05/07 03:56:58;;;;;;;;;;;5.80;97.00;;;;;;5100650;28;19916;-70
2021/05/07 03:59:23;;;;;;;;;;;5.80;97.30;;;;;;5100719;28;20411;-71
2021/05/07 04:01:48;;;;;;;;;;;5.80;97.40;;;;;;5101514;27;20022;-71
2021/05/07 04:04:14;;;;;;;;;;;5.70;97.30;;;;;;5099551;28;20324;-70
2021/05/07 04:06:40;;;;;;;;;;;5.70;97.20;;;;;;5106094;27;19912;-71
2021/05/07 04:09:15;;;;;;;;;;;5.70;97.20;;;;;;5107957;28;19977;-70
2021/05/07 04:14:13;;;;;;;;;;;5.70;97.10;;;;;;5107151;27;19951;-70
2021/05/07 04:16:38;;;;;;;;;;;5.70;97.10;;;;;;5091907;27;19928;-70
2021/05/07 04:19:04;;;;;;;;;;;5.70;97.10;;;;;;5097564;28;19912;-71
2021/05/07 04:21:29;;;;;;;;;;;5.70;97.00;;;;;;5112537;28;19915;-70
2021/05/07 04:23:55;;;;;;;;;;;5.60;97.00;;;;;;5117175;28;20003;-71
2021/05/07 04:26:21;;;;;;;;;;;5.60;97.00;;;;;;5117693;28;19912;-71
2021/05/07 04:28:46;;;;;;;;;;;5.60;96.80;;;;;;5096701;28;20492;-71
2021/05/07 04:31:12;;;;;;;;;;;5.60;96.90;;;;;;5091271;28;19912;-71
2021/05/07 04:33:37;;;;;;;;;;;5.60;97.00;;;;;;5114859;28;20312;-70
2021/05/07 04:36:03;;;;;;;;;;;5.60;97.00;;;;;;5106261;28;19958;-71
2021/05/07 04:38:28;;;;;;;;;;;5.60;96.80;;;;;;5112344;28;19916;-71
2021/05/07 04:40:54;;;;;;;;;;;5.60;96.80;;;;;;5108697;28;20387;-70
2021/05/07 04:43:19;;;;;;;;;;;5.60;96.90;;;;;;5115941;28;19912;-70
2021/05/07 04:45:45;;;;;;;;;;;5.60;96.80;;;;;;5101856;28;19912;-70
2021/05/07 04:48:12;;;;;;;;;;;5.60;96.70;;;;;;5107495;28;19919;-69
2021/05/07 04:50:37;;;;;;;;;;;5.60;96.80;;;;;;5113004;28;19947;-69
2021/05/07 04:53:03;;;;;;;;;;;5.60;96.70;;;;;;5104891;28;19962;-68
2021/05/07 04:55:29;;;;;;;;;;;5.60;96.50;;;;;;5108076;28;20251;-68
2021/05/07 04:57:54;;;;;;;;;;;5.50;96.80;;;;;;5103230;28;19923;-68
2021/05/07 05:00:20;;;;;;;;;;;5.30;97.50;;;;;;5096595;28;19911;-69
2021/05/07 05:02:46;;;;;;;;;;;5.00;97.50;;;;;;5115140;28;19920;-70
2021/05/07 05:05:12;;;;;;;;;;;4.80;97.40;;;;;;5115149;28;20331;-70
2021/05/07 05:07:45;;;;;;;;;;;4.60;97.40;;;;;;5107740;28;19994;-70
2021/05/07 05:10:11;;;;;;;;;;;4.50;97.40;;;;;;5105928;27;19919;-70
2021/05/07 05:12:37;;;;;;;;;;;4.40;97.40;;;;;;5097195;28;19912;-70
2021/05/07 05:15:02;;;;;;;;;;;4.30;97.40;;;;;;5114230;28;19919;-69
2021/05/07 05:17:28;;;;;;;;;;;4.10;97.60;;;;;;5117343;28;20450;-70
2021/05/07 05:19:53;;;;;;;;;;;4.10;97.30;;;;;;5099356;28;20357;-70
2021/05/07 05:22:19;;;;;;;;;;;4.10;97.20;;;;;;5115998;28;20006;-70
2021/05/07 05:24:44;;;;;;;;;;;4.00;97.00;;;;;;5111265;28;20008;-70
2021/05/07 05:27:10;;;;;;;;;;;4.00;97.00;;;;;;5097020;28;20094;-70
2021/05/07 05:29:36;;;;;;;;;;;3.90;97.20;;;;;;5104897;28;19916;-71
2021/05/07 05:32:01;;;;;;;;;;;3.90;97.10;;;;;;5116437;28;19912;-70
2021/05/07 05:34:27;;;;;;;;;;;3.90;97.00;;;;;;5115604;28;20271;-71
2021/05/07 05:36:52;;;;;;;;;;;3.80;97.00;;;;;;5115612;28;19912;-71
2021/05/07 05:39:18;;;;;;;;;;;3.80;96.90;;;;;;5117254;28;20062;-70
2021/05/07 05:41:43;;;;;;;;;;;3.80;96.90;;;;;;5116438;28;19919;-71
2021/05/07 05:44:09;;;;;;;;;;;3.70;97.10;;;;;;5116779;28;19908;-72
2021/05/07 05:46:36;;;;;;;;;;;3.60;97.00;;;;;;5115959;28;19951;-71
2021/05/07 05:49:02;;;;;;;;;;;3.60;97.00;;;;;;5116954;28;19947;-71
2021/05/07 05:51:28;;;;;;;;;;;3.60;96.90;;;;;;5115527;28;20364;-70
2021/05/07 05:53:53;;;;;;;;;;;3.60;97.00;;;;;;5116905;28;19957;-71
2021/05/07 05:56:19;;;;;;;;;;;3.60;96.80;;;;;;5115864;28;19958;-71
2021/05/07 05:58:44;;;;;;;;;;;3.50;98.00;;;;;;5116438;28;19972;-72
2021/05/07 06:01:10;;;;;;;;;;;3.40;97.80;;;;;;5116388;28;19915;-72
2021/05/07 06:03:35;;;;;;;;;;;3.30;97.60;;;;;;5116110;27;20011;-71
2021/05/07 06:06:01;;;;;;;;;;;3.30;97.30;;;;;;5097782;28;20319;-72
2021/05/07 06:08:26;;;;;;;;;;;3.40;97.40;;;;;;5114758;28;19915;-71
2021/05/07 06:10:52;;;;;;;;;;;3.40;97.30;;;;;;5116370;28;19912;-72
2021/05/07 06:13:17;;;;;;;;;;;3.50;97.20;;;;;;5115786;28;20353;-72
2021/05/07 06:15:43;;;;;;;;;;;3.50;97.40;;;;;;5115891;28;19920;-71
2021/05/07 06:18:08;;;;;;;;;;;3.60;97.10;;;;;;5115601;28;20042;-71
2021/05/07 06:20:34;;;;;;;;;;;3.60;97.30;;;;;;5116231;28;20208;-71
2021/05/07 06:22:59;;;;;;;;;;;3.50;97.70;;;;;;5110182;28;19919;-70
2021/05/07 06:25:26;;;;;;;;;;;3.60;98.00;;;;;;5097627;28;19916;-71
2021/05/07 06:27:52;;;;;;;;;;;3.50;98.00;;;;;;5116064;28;20300;-71
2021/05/07 06:30:17;;;;;;;;;;;3.50;97.90;;;;;;5097874;28;19921;-70
2021/05/07 06:32:43;;;;;;;;;;;3.50;97.70;;;;;;5110301;28;19912;-70
2021/05/07 06:35:09;;;;;;;;;;;3.60;98.00;;;;;;5114496;28;19923;-69
2021/05/07 06:37:35;;;;;;;;;;;3.60;98.00;;;;;;5115033;28;19965;-70
2021/05/07 06:40:00;;;;;;;;;;;3.60;98.00;;;;;;5098102;28;19916;-71
2021/05/07 06:42:26;;;;;;;;;;;3.60;98.00;;;;;;5115293;28;19969;-70
2021/05/07 06:44:52;;;;;;;;;;;3.60;98.00;;;;;;5097979;28;20296;-71
2021/05/07 06:47:20;;;;;;;;;;;3.60;98.00;;;;;;5116104;28;19908;-70
2021/05/07 06:49:46;;;;;;;;;;;3.60;98.00;;;;;;5115830;28;19947;-71
2021/05/07 06:52:11;;;;;;;;;;;3.60;97.80;;;;;;5096415;28;19954;-71
2021/05/07 06:54:37;;;;;;;;;;;3.60;98.00;;;;;;5115779;28;20300;-71
2021/05/07 06:57:03;;;;;;;;;;;3.60;98.00;;;;;;5116017;28;19965;-71
2021/05/07 06:59:28;;;;;;;;;;;3.60;98.00;;;;;;5115468;28;19915;-71
2021/05/07 07:01:54;;;;;;;;;;;3.60;98.00;;;;;;5115124;28;19974;-70
2021/05/07 07:04:20;;;;;;;;;;;3.60;97.80;;;;;;5106081;28;19911;-71
2021/05/07 07:06:45;;;;;;;;;;;3.70;98.00;;;;;;5114737;28;19908;-71
2021/05/07 07:09:12;;;;;;;;;;;3.70;97.90;;;;;;5115971;28;19911;-71
2021/05/07 07:11:38;;;;;;;;;;;3.80;97.60;;;;;;5096008;28;19912;-71
2021/05/07 07:14:04;;;;;;;;;;;4.00;97.90;;;;;;5115139;28;20003;-71
2021/05/07 07:16:29;;;;;;;;;;;4.10;98.00;;;;;;5115535;28;19959;-71
2021/05/07 07:18:55;;;;;;;;;;;4.10;98.00;;;;;;5115741;28;19908;-71
2021/05/07 07:21:20;;;;;;;;;;;4.10;98.00;;;;;;5114562;28;19915;-71
2021/05/07 07:23:46;;;;;;;;;;;4.00;98.00;;;;;;5115246;28;19912;-71
2021/05/07 07:26:12;;;;;;;;;;;3.90;98.00;;;;;;5115312;28;19923;-71
2021/05/07 07:28:37;;;;;;;;;;;3.90;98.00;;;;;;5115757;28;20252;-71
2021/05/07 07:31:03;;;;;;;;;;;3.90;98.00;;;;;;5117657;28;19912;-71
2021/05/07 07:33:29;;;;;;;;;;;4.00;98.00;;;;;;5118154;28;19916;-71
2021/05/07 07:35:55;;;;;;;;;;;4.00;98.00;;;;;;5117416;28;19926;-71
2021/05/07 07:38:21;;;;;;;;;;;4.10;98.00;;;;;;5114096;28;20057;-70
2021/05/07 07:40:48;;;;;;;;;;;4.00;98.00;;;;;;5115760;28;20030;-70
2021/05/07 07:43:13;;;;;;;;;;;4.10;98.00;;;;;;5111918;28;19919;-69
2021/05/07 07:45:39;;;;;;;;;;;4.10;98.00;;;;;;5099269;28;19913;-69
2021/05/07 07:48:05;;;;;;;;;;;4.20;98.00;;;;;;5098744;28;20038;-68
2021/05/07 07:50:30;;;;;;;;;;;4.20;98.00;;;;;;5103731;28;19919;-70
2021/05/07 07:52:56;;;;;;;;;;;4.20;98.00;;;;;;5114879;28;19919;-69
2021/05/07 07:55:21;;;;;;;;;;;4.20;97.70;;;;;;5102991;28;19923;-71
2021/05/07 07:57:47;;;;;;;;;;;4.20;98.00;;;;;;5100258;28;19918;-71
2021/05/07 08:00:13;;;;;;;;;;;4.10;98.00;;;;;;5118504;28;20216;-70
2021/05/07 08:02:38;;;;;;;;;;;4.10;98.00;;;;;;5116754;28;20219;-71
2021/05/07 08:05:04;;;;;;;;;;;4.10;98.00;;;;;;5107903;28;19914;-71
2021/05/07 08:07:30;;;;;;;;;;;4.20;98.00;;;;;;5117077;27;20300;-71
2021/05/07 08:09:55;;;;;;;;;;;4.30;97.90;;;;;;5098267;28;20637;-70
2021/05/07 08:12:21;;;;;;;;;;;4.30;98.00;;;;;;5117757;28;20334;-71
2021/05/07 08:14:46;;;;;;;;;;;4.30;97.90;;;;;;5118041;28;19918;-70
2021/05/07 08:17:12;;;;;;;;;;;4.20;98.00;;;;;;5117836;28;19912;-71
2021/05/07 08:19:40;;;;;;;;;;;4.20;97.90;;;;;;5117921;28;19923;-71
2021/05/07 08:22:05;;;;;;;;;;;4.20;98.00;;;;;;5098946;28;20308;-71
2021/05/07 08:24:31;;;;;;;;;;;4.30;98.00;;;;;;5099139;28;19916;-71
2021/05/07 08:26:59;;;;;;;;;;;4.30;98.00;;;;;;5118039;28;19930;-71
2021/05/07 08:29:25;;;;;;;;;;;4.40;98.00;;;;;;5118341;28;19987;-71
2021/05/07 08:31:51;;;;;;;;;;;4.40;98.00;;;;;;5099219;28;20392;-71
2021/05/07 08:34:17;;;;;;;;;;;4.40;98.00;;;;;;5103585;28;20057;-69
2021/05/07 08:36:42;;;;;;;;;;;4.40;98.00;;;;;;5107435;28;19915;-71
2021/05/07 08:39:08;;;;;;;;;;;4.40;98.00;;;;;;5118207;28;19912;-70
2021/05/07 08:41:35;;;;;;;;;;;4.40;98.00;;;;;;5117731;28;20308;-71
2021/05/07 08:44:00;;;;;;;;;;;4.40;98.00;;;;;;5106240;28;19912;-71
2021/05/07 08:46:26;;;;;;;;;;;4.40;97.80;;;;;;5105133;28;20216;-71
2021/05/07 08:48:52;;;;;;;;;;;4.40;98.00;;;;;;5117765;28;19911;-71
2021/05/07 08:51:18;;;;;;;;;;;4.40;97.80;;;;;;5116436;28;19955;-71
2021/05/07 08:53:43;;;;;;;;;;;4.50;98.00;;;;;;5099106;28;19955;-71
2021/05/07 08:56:09;;;;;;;;;;;4.40;98.00;;;;;;5113520;28;19959;-71
2021/05/07 08:58:35;;;;;;;;;;;4.50;97.80;;;;;;5102136;28;19923;-71
2021/05/07 09:01:01;;;;;;;;;;;4.50;97.90;;;;;;5112594;28;19947;-71
2021/05/07 09:03:37;;;;;;;;;;;4.50;97.70;;;;;;5110560;28;20354;-70
2021/05/07 09:06:12;;;;;;;;;;;4.60;97.60;;;;;;5103404;28;20015;-72
2021/05/07 09:08:41;;;;;;;;;;;4.60;98.00;;;;;;5079401;28;19947;-71
2021/05/07 09:11:06;;;;;;;;;;;4.60;97.60;;;;;;5112405;28;19972;-71
2021/05/07 09:13:32;;;;;;;;;;;4.60;97.70;;;;;;5097092;28;19912;-71
2021/05/07 09:16:03;;;;;;;;;;;4.60;97.60;;;;;;5114243;28;20247;-71
2021/05/07 09:18:30;;;;;;;;;;;4.70;98.00;;;;;;5117204;28;20003;-71
2021/05/07 09:20:59;;;;;;;;;;;4.70;98.00;;;;;;5116731;28;20312;-71
2021/05/07 09:23:24;;;;;;;;;;;4.90;97.80;;;;;;5114936;28;19937;-71
2021/05/07 09:25:59;;;;;;;;;;;5.20;98.00;;;;;;5117264;28;19915;-71
2021/05/07 09:28:25;;;;;;;;;;;5.30;98.00;;;;;;5116691;28;19951;-71
2021/05/07 09:30:50;;;;;;;;;;;5.80;98.00;;;;;;5116344;28;19966;-70
2021/05/07 09:33:16;;;;;;;;;;;6.20;98.00;;;;;;5094487;28;19916;-70
2021/05/07 09:35:42;;;;;;;;;;;6.60;98.00;;;;;;5099554;28;19956;-72
2021/05/07 09:38:10;;;;;;;;;;;6.80;97.80;;;;;;5115614;28;20002;-70
2021/05/07 09:40:36;;;;;;;;;;;6.80;98.00;;;;;;5111506;28;20198;-71
2021/05/07 09:43:03;;;;;;;;;;;7.00;98.00;;;;;;5104617;28;19907;-71
2021/05/07 09:45:32;;;;;;;;;;;6.70;97.30;;;;;;5116875;28;19916;-71
2021/05/07 09:47:57;;;;;;;;;;;6.70;97.70;;;;;;5116175;28;19916;-71
2021/05/07 09:50:31;;;;;;;;;;;6.90;98.00;;;;;;5116175;28;19949;-72
2021/05/07 09:53:06;;;;;;;;;;;7.00;97.40;;;;;;5113743;28;19908;-70
2021/05/07 09:55:31;;;;;;;;;;;7.80;98.00;;;;;;5116344;28;20323;-71
2021/05/07 09:57:57;;;;;;;;;;;9.10;93.60;;;;;;5116548;28;19915;-70
2021/05/07 10:00:23;;;;;;;;;;;9.00;92.40;;;;;;5115298;28;19947;-70
2021/05/07 10:02:49;;;;;;;;;;;9.60;95.00;;;;;;5101644;28;19962;-71
2021/05/07 10:05:17;;;;;;;;;;;9.30;91.40;;;;;;5096098;28;20245;-71
2021/05/07 10:07:43;;;;;;;;;;;9.40;92.30;;;;;;5113108;28;20215;-71
2021/05/07 10:10:09;;;;;;;;;;;9.30;94.00;;;;;;5113671;28;19921;-71
2021/05/07 10:12:35;;;;;;;;;;;9.30;89.50;;;;;;5116333;28;19912;-70
2021/05/07 10:15:04;;;;;;;;;;;9.30;90.20;;;;;;5115961;28;19920;-70
2021/05/07 10:17:31;;;;;;;;;;;9.90;89.40;;;;;;5116264;28;19915;-70
2021/05/07 10:19:56;;;;;;;;;;;10.30;85.20;;;;;;5115574;28;20003;-71
2021/05/07 10:22:26;;;;;;;;;;;10.50;83.90;;;;;;5096964;28;20006;-70
2021/05/07 10:24:52;;;;;;;;;;;9.90;83.20;;;;;;5116018;28;19922;-70
2021/05/07 10:27:20;;;;;;;;;;;10.10;80.50;;;;;;5116491;28;19947;-70
2021/05/07 10:29:52;;;;;;;;;;;10.70;82.30;;;;;;5115599;28;20270;-70
2021/05/07 10:32:29;;;;;;;;;;;10.50;81.30;;;;;;5097548;28;19987;-70
2021/05/07 10:34:58;;;;;;;;;;;9.40;82.00;;;;;;5116115;28;20003;-71
2021/05/07 10:37:35;;;;;;;;;;;8.50;81.60;;;;;;5114891;28;19908;-69
2021/05/07 10:40:02;;;;;;;;;;;8.10;79.70;;;;;;5115187;28;19916;-69
2021/05/07 10:42:27;;;;;;;;;;;8.00;81.20;;;;;;5116216;28;19916;-69
2021/05/07 10:44:53;;;;;;;;;;;9.20;79.50;;;;;;5115283;28;19919;-69
2021/05/07 10:47:19;;;;;;;;;;;9.00;75.50;;;;;;5115497;28;19919;-69
2021/05/07 10:49:47;;;;;;;;;;;9.20;82.20;;;;;;5114400;28;20304;-71
2021/05/07 10:52:13;;;;;;;;;;;10.50;78.40;;;;;;5114813;28;19918;-71
2021/05/07 10:54:47;;;;;;;;;;;11.30;75.70;;;;;;5114255;28;19955;-70
2021/05/07 10:57:29;;;;;;;;;;;11.70;72.80;;;;;;5086576;28;20293;-70
2021/05/07 10:59:55;;;;;;;;;;;11.80;72.90;;;;;;5105846;28;19916;-71
2021/05/07 11:02:26;;;;;;;;;;;11.30;73.80;;;;;;5115004;28;19915;-70
2021/05/07 11:04:53;;;;;;;;;;;10.30;72.40;;;;;;5115638;28;19915;-71
2021/05/07 11:07:30;;;;;;;;;;;9.90;75.20;;;;;;5086261;28;20316;-69
2021/05/07 11:10:03;;;;;;;;;;;10.60;72.50;;;;;;5114136;28;19912;-69
2021/05/07 11:12:28;;;;;;;;;;;10.90;71.60;;;;;;5119544;28;19941;-69
2021/05/07 11:14:54;;;;;;;;;;;11.00;71.20;;;;;;5119224;28;19916;-70
2021/05/07 11:17:19;;;;;;;;;;;11.00;69.50;;;;;;5118859;28;20281;-70
2021/05/07 11:19:48;;;;;;;;;;;10.80;71.00;;;;;;5119300;28;19990;-69
2021/05/07 11:22:14;;;;;;;;;;;10.20;71.30;;;;;;5118243;28;19916;-69
2021/05/07 11:24:46;;;;;;;;;;;9.50;73.60;;;;;;5119413;28;20003;-69
2021/05/07 11:27:19;;;;;;;;;;;10.10;74.90;;;;;;5117634;28;20201;-69
2021/05/07 11:29:45;;;;;;;;;;;10.00;72.40;;;;;;5103101;28;19915;-69
2021/05/07 11:32:15;;;;;;;;;;;10.50;73.20;;;;;;5111030;27;19920;-69
2021/05/07 11:34:51;;;;;;;;;;;11.00;70.90;;;;;;5096359;28;19961;-68
2021/05/07 11:37:17;;;;;;;;;;;11.20;71.70;;;;;;5116151;28;19915;-69
2021/05/07 11:39:53;;;;;;;;;;;10.90;69.00;;;;;;5115690;28;19918;-69
2021/05/07 11:42:26;;;;;;;;;;;10.90;72.40;;;;;;5098329;28;19922;-70
2021/05/07 11:44:52;;;;;;;;;;;11.00;69.60;;;;;;5100552;28;19916;-69
2021/05/07 11:47:18;;;;;;;;;;;10.60;69.80;;;;;;5098764;28;19918;-69
2021/05/07 11:49:47;;;;;;;;;;;10.70;68.60;;;;;;5114287;28;19912;-69
2021/05/07 11:52:13;;;;;;;;;;;11.20;68.10;;;;;;5117687;28;20194;-70
2021/05/07 11:54:41;;;;;;;;;;;11.50;66.70;;;;;;5117899;28;19919;-69
2021/05/07 11:57:06;;;;;;;;;;;11.90;66.10;;;;;;5118189;28;19916;-70
2021/05/07 11:59:32;;;;;;;;;;;12.30;65.20;;;;;;5118622;28;19919;-69
2021/05/07 12:02:07;;;;;;;;;;;12.70;67.10;;;;;;5107103;27;19919;-69
2021/05/07 12:04:42;;;;;;;;;;;12.00;65.00;;;;;;5109822;28;19998;-69
2021/05/07 12:07:18;;;;;;;;;;;11.20;67.60;;;;;;5116894;28;19919;-69
2021/05/07 12:09:47;;;;;;;;;;;10.70;67.70;;;;;;5117908;28;19920;-69
2021/05/07 12:12:13;;;;;;;;;;;10.40;67.30;;;;;;5118335;28;19912;-69
2021/05/07 12:14:45;;;;;;;;;;;10.20;67.60;;;;;;5100712;28;19919;-69
2021/05/07 12:17:10;;;;;;;;;;;10.20;68.10;;;;;;5117186;28;20373;-69
2021/05/07 12:19:36;;;;;;;;;;;10.30;67.30;;;;;;5118725;28;19955;-69
2021/05/07 12:22:01;;;;;;;;;;;10.20;65.80;;;;;;5117418;28;19912;-69
2021/05/07 12:24:28;;;;;;;;;;;10.20;67.00;;;;;;5118221;28;19912;-69
2021/05/07 12:26:53;;;;;;;;;;;10.70;66.40;;;;;;5111030;28;19923;-69
2021/05/07 12:29:19;;;;;;;;;;;11.20;65.90;;;;;;5098065;28;19913;-69
2021/05/07 12:31:47;;;;;;;;;;;11.10;65.40;;;;;;5080495;28;20014;-69
2021/05/07 12:34:14;;;;;;;;;;;10.50;64.80;;;;;;5097810;28;19912;-69
2021/05/07 12:36:40;;;;;;;;;;;10.00;65.90;;;;;;5101535;28;19919;-70
2021/05/07 12:39:07;;;;;;;;;;;9.40;66.60;;;;;;5117413;28;19908;-69
2021/05/07 12:41:32;;;;;;;;;;;9.70;67.80;;;;;;5117261;28;19916;-69
2021/05/07 12:43:58;;;;;;;;;;;10.50;67.70;;;;;;5118283;28;19914;-69
2021/05/07 12:46:24;;;;;;;;;;;11.30;67.70;;;;;;5118008;28;19908;-69
2021/05/07 12:48:50;;;;;;;;;;;12.00;65.10;;;;;;5117964;28;19943;-69
2021/05/07 12:51:16;;;;;;;;;;;12.10;65.40;;;;;;5116166;28;20290;-69
2021/05/07 12:53:42;;;;;;;;;;;11.70;62.60;;;;;;5117863;28;19951;-70
2021/05/07 12:56:11;;;;;;;;;;;11.60;63.50;;;;;;5117803;28;20556;-69
2021/05/07 12:58:37;;;;;;;;;;;11.30;63.90;;;;;;5099661;28;19914;-69
2021/05/07 13:01:02;;;;;;;;;;;11.00;66.20;;;;;;5112082;28;19916;-69
2021/05/07 13:03:28;;;;;;;;;;;11.40;65.10;;;;;;5097370;28;19916;-69
2021/05/07 13:05:56;;;;;;;;;;;12.30;63.60;;;;;;5115380;28;19921;-69
2021/05/07 13:08:24;;;;;;;;;;;12.90;62.50;;;;;;5116365;28;19935;-69
2021/05/07 13:10:50;;;;;;;;;;;12.60;60.30;;;;;;5116794;28;20006;-69
2021/05/07 13:13:16;;;;;;;;;;;11.90;62.40;;;;;;5117530;28;19984;-69
2021/05/07 13:15:41;;;;;;;;;;;12.10;61.20;;;;;;5117383;28;20007;-69
2021/05/07 13:18:07;;;;;;;;;;;12.30;60.40;;;;;;5117552;28;19914;-69
2021/05/07 13:20:33;;;;;;;;;;;12.00;59.90;;;;;;5105932;28;19920;-69
2021/05/07 13:22:58;;;;;;;;;;;10.90;61.90;;;;;;5112365;28;19916;-69
2021/05/07 13:25:24;;;;;;;;;;;10.30;63.80;;;;;;5117164;28;20181;-69
2021/05/07 13:27:52;;;;;;;;;;;10.10;64.30;;;;;;5097490;28;20139;-69
2021/05/07 13:30:18;;;;;;;;;;;10.80;64.30;;;;;;5115410;28;19958;-69
2021/05/07 13:32:47;;;;;;;;;;;10.90;62.60;;;;;;5097570;28;20215;-68
2021/05/07 13:35:13;;;;;;;;;;;10.70;63.50;;;;;;5117164;28;19961;-68
2021/05/07 13:37:40;;;;;;;;;;;10.60;64.30;;;;;;5115275;28;19914;-69
2021/05/07 13:40:07;;;;;;;;;;;10.40;64.60;;;;;;5116477;28;19912;-68
2021/05/07 13:42:33;;;;;;;;;;;10.40;65.20;;;;;;5117098;28;20216;-70
2021/05/07 13:45:03;;;;;;;;;;;10.30;65.30;;;;;;5098867;28;19907;-70
2021/05/07 13:47:28;;;;;;;;;;;10.30;66.50;;;;;;5116699;28;20010;-70
2021/05/07 13:49:54;;;;;;;;;;;10.40;67.00;;;;;;5112186;28;20029;-69
2021/05/07 13:52:19;;;;;;;;;;;10.20;66.60;;;;;;5106378;28;19951;-69
2021/05/07 13:54:45;;;;;;;;;;;10.20;67.70;;;;;;5115693;28;20316;-70
2021/05/07 13:57:10;;;;;;;;;;;10.10;67.90;;;;;;5098340;28;20060;-69
2021/05/07 13:59:36;;;;;;;;;;;9.90;66.90;;;;;;5098110;28;19915;-69
2021/05/07 14:02:01;;;;;;;;;;;9.90;66.30;;;;;;5114708;28;20254;-68
2021/05/07 14:04:27;;;;;;;;;;;9.70;65.60;;;;;;5115475;28;19999;-69
2021/05/07 14:06:55;;;;;;;;;;;9.70;65.80;;;;;;5114813;28;19965;-68
2021/05/07 14:09:24;;;;;;;;;;;9.70;66.70;;;;;;5116049;28;20595;-68
2021/05/07 14:11:54;;;;;;;;;;;9.60;65.50;;;;;;5115654;28;20019;-68
2021/05/07 14:14:20;;;;;;;;;;;9.50;65.80;;;;;;5115433;28;19998;-68
2021/05/07 14:16:45;;;;;;;;;;;9.50;66.80;;;;;;5097860;28;20017;-68
2021/05/07 14:19:11;;;;;;;;;;;9.60;66.60;;;;;;5115980;28;19912;-68
2021/05/07 14:21:37;;;;;;;;;;;10.00;66.40;;;;;;5112818;28;19915;-68
2021/05/07 14:24:06;;;;;;;;;;;10.60;64.40;;;;;;5097297;28;20221;-68